sensor_id;sensor_type;location;lat;lon;timestamp;temperature;humidity
36586;DHT22;22591;48.314;11.562;2023-04-03T00:00:05;2.60;99.90
36586;DHT22;22591;48.314;11.562;2023-04-03T00:02:30;2.50;99.90
36586;DHT22;22591;48.314;11.562;2023-04-03T00:04:56;2.60;99.90
36586;DHT22;22591;48.314;11.562;2023-04-03T00:07:21;2.50;99.90
36586;DHT22;22591;48.314;11.562;2023-04-03T00:09:47;2.50;99.90
36586;DHT22;22591;48.314;11.562;2023-04-03T00:12:13;2.50;99.90
36586;DHT22;22591;48.314;11.562;2023-04-03T00:14:38;2.50;99.90
36586;DHT22;22591;48.314;11.562;2023-04-03T00:17:04;2.50;99.90
36586;DHT22;22591;48.314;11.562;2023-04-03T00:19:30;2.40;99.90
36586;DHT22;22591;48.314;11.562;2023-04-03T00:21:55;2.40;99.90
36586;DHT22;22591;48.314;11.562;2023-04-03T00:24:21;2.40;99.90
36586;DHT22;22591;48.314;11.562;2023-04-03T00:26:47;2.40;99.90
36586;DHT22;22591;48.314;11.562;2023-04-03T00:29:12;2.40;99.90
36586;DHT22;22591;48.314;11.562;2023-04-03T00:31:38;2.40;99.90
36586;DHT22;22591;48.314;11.562;2023-04-03T00:34:03;2.40;99.90
36586;DHT22;22591;48.314;11.562;2023-04-03T00:36:29;2.30;99.90
36586;DHT22;22591;48.314;11.562;2023-04-03T00:38:55;2.30;99.90
36586;DHT22;22591;48.314;11.562;2023-04-03T00:41:20;2.30;99.90
36586;DHT22;22591;48.314;11.562;2023-04-03T00:43:46;2.30;99.90
36586;DHT22;22591;48.314;11.562;2023-04-03T00:46:12;2.30;99.90
36586;DHT22;22591;48.314;11.562;2023-04-03T00:48:41;2.30;99.90
36586;DHT22;22591;48.314;11.562;2023-04-03T00:51:13;2.30;99.90
36586;DHT22;22591;48.314;11.562;2023-04-03T00:53:43;2.40;99.90
36586;DHT22;22591;48.314;11.562;2023-04-03T00:56:13;2.40;99.90
36586;DHT22;22591;48.314;11.562;2023-04-03T00:58:44;2.40;99.90
36586;DHT22;22591;48.314;11.562;2023-04-03T01:01:12;2.30;99.90
36586;DHT22;22591;48.314;11.562;2023-04-03T01:03:39;2.30;99.90
36586;DHT22;22591;48.314;11.562;2023-04-03T01:06:05;2.30;99.90
36586;DHT22;22591;48.314;11.562;2023-04-03T01:08:31;2.40;99.90
36586;DHT22;22591;48.314;11.562;2023-04-03T01:10:57;2.40;99.90
36586;DHT22;22591;48.314;11.562;2023-04-03T01:13:26;2.40;99.90
36586;DHT22;22591;48.314;11.562;2023-04-03T01:15:53;2.40;99.90
36586;DHT22;22591;48.314;11.562;2023-04-03T01:18:19;2.30;99.90
36586;DHT22;22591;48.314;11.562;2023-04-03T01:21:23;2.40;99.90
36586;DHT22;22591;48.314;11.562;2023-04-03T01:26:33;2.40;99.90
36586;DHT22;22591;48.314;11.562;2023-04-03T01:28:59;2.40;99.90
36586;DHT22;22591;48.314;11.562;2023-04-03T01:31:52;2.40;99.90
36586;DHT22;22591;48.314;11.562;2023-04-03T01:34:19;2.50;99.90
36586;DHT22;22591;48.314;11.562;2023-04-03T01:36:44;2.50;99.90
36586;DHT22;22591;48.314;11.562;2023-04-03T01:39:10;2.50;99.90
36586;DHT22;22591;48.314;11.562;2023-04-03T01:41:36;2.60;99.90
36586;DHT22;22591;48.314;11.562;2023-04-03T01:44:02;2.60;99.90
36586;DHT22;22591;48.314;11.562;2023-04-03T01:46:29;2.60;99.90
36586;DHT22;22591;48.314;11.562;2023-04-03T01:48:54;2.60;99.90
36586;DHT22;22591;48.314;11.562;2023-04-03T01:51:20;2.70;99.90
36586;DHT22;22591;48.314;11.562;2023-04-03T01:53:45;2.60;99.90
36586;DHT22;22591;48.314;11.562;2023-04-03T01:56:11;2.70;99.90
36586;DHT22;22591;48.314;11.562;2023-04-03T01:58:37;2.70;99.90
36586;DHT22;22591;48.314;11.562;2023-04-03T02:01:02;2.60;99.90
36586;DHT22;22591;48.314;11.562;2023-04-03T02:03:28;2.60;99.90
36586;DHT22;22591;48.314;11.562;2023-04-03T02:05:53;2.60;99.90
36586;DHT22;22591;48.314;11.562;2023-04-03T02:08:19;2.60;99.90
36586;DHT22;22591;48.314;11.562;2023-04-03T02:10:48;2.60;99.90
36586;DHT22;22591;48.314;11.562;2023-04-03T02:13:14;2.60;99.90
36586;DHT22;22591;48.314;11.562;2023-04-03T02:15:39;2.60;99.90
36586;DHT22;22591;48.314;11.562;2023-04-03T02:18:06;2.60;99.90
36586;DHT22;22591;48.314;11.562;2023-04-03T02:20:31;2.60;99.90
36586;DHT22;22591;48.314;11.562;2023-04-03T02:22:57;2.60;99.90
36586;DHT22;22591;48.314;11.562;2023-04-03T02:25:23;2.60;99.90
36586;DHT22;22591;48.314;11.562;2023-04-03T02:27:49;2.60;99.90
36586;DHT22;22591;48.314;11.562;2023-04-03T02:30:14;2.60;99.90
36586;DHT22;22591;48.314;11.562;2023-04-03T02:32:41;2.60;99.90
36586;DHT22;22591;48.314;11.562;2023-04-03T02:35:08;2.60;99.90
36586;DHT22;22591;48.314;11.562;2023-04-03T02:37:34;2.60;99.90
36586;DHT22;22591;48.314;11.562;2023-04-03T02:40:00;2.70;99.90
36586;DHT22;22591;48.314;11.562;2023-04-03T02:42:25;2.60;99.90
36586;DHT22;22591;48.314;11.562;2023-04-03T02:44:51;2.60;99.90
36586;DHT22;22591;48.314;11.562;2023-04-03T02:47:16;2.60;99.90
36586;DHT22;22591;48.314;11.562;2023-04-03T02:49:42;2.70;99.90
36586;DHT22;22591;48.314;11.562;2023-04-03T02:52:10;2.70;99.90
36586;DHT22;22591;48.314;11.562;2023-04-03T02:54:36;2.70;99.90
36586;DHT22;22591;48.314;11.562;2023-04-03T02:57:01;2.70;99.90
36586;DHT22;22591;48.314;11.562;2023-04-03T02:59:27;2.70;99.90
36586;DHT22;22591;48.314;11.562;2023-04-03T03:01:52;2.70;99.90
36586;DHT22;22591;48.314;11.562;2023-04-03T03:04:18;2.70;99.90
36586;DHT22;22591;48.314;11.562;2023-04-03T03:06:44;2.70;99.90
36586;DHT22;22591;48.314;11.562;2023-04-03T03:09:09;2.70;99.90
36586;DHT22;22591;48.314;11.562;2023-04-03T03:11:35;2.70;99.90
36586;DHT22;22591;48.314;11.562;2023-04-03T03:14:00;2.70;99.90
36586;DHT22;22591;48.314;11.562;2023-04-03T03:16:26;2.70;99.90
36586;DHT22;22591;48.314;11.562;2023-04-03T03:18:51;2.70;99.90
36586;DHT22;22591;48.314;11.562;2023-04-03T03:21:17;2.70;99.90
36586;DHT22;22591;48.314;11.562;2023-04-03T03:23:42;2.70;99.90
36586;DHT22;22591;48.314;11.562;2023-04-03T03:26:10;2.70;99.90
36586;DHT22;22591;48.314;11.562;2023-04-03T03:28:37;2.70;99.90
36586;DHT22;22591;48.314;11.562;2023-04-03T03:31:04;2.70;99.90
36586;DHT22;22591;48.314;11.562;2023-04-03T03:33:29;2.70;99.90
36586;DHT22;22591;48.314;11.562;2023-04-03T03:35:55;2.70;99.90
36586;DHT22;22591;48.314;11.562;2023-04-03T03:38:21;2.70;99.90
36586;DHT22;22591;48.314;11.562;2023-04-03T03:40:48;2.70;99.90
36586;DHT22;22591;48.314;11.562;2023-04-03T03:43:14;2.70;99.90
36586;DHT22;22591;48.314;11.562;2023-04-03T03:45:39;2.70;99.90
36586;DHT22;22591;48.314;11.562;2023-04-03T03:48:05;2.70;99.90
36586;DHT22;22591;48.314;11.562;2023-04-03T03:50:31;2.70;99.90
36586;DHT22;22591;48.314;11.562;2023-04-03T03:52:56;2.70;99.90
36586;DHT22;22591;48.314;11.562;2023-04-03T03:55:22;2.70;99.90
36586;DHT22;22591;48.314;11.562;2023-04-03T03:57:47;2.70;99.90
36586;DHT22;22591;48.314;11.562;2023-04-03T04:00:14;2.70;99.90
36586;DHT22;22591;48.314;11.562;2023-04-03T04:02:42;2.70;99.90
36586;DHT22;22591;48.314;11.562;2023-04-03T04:05:08;2.70;99.90
36586;DHT22;22591;48.314;11.562;2023-04-03T04:07:34;2.70;99.90
36586;DHT22;22591;48.314;11.562;2023-04-03T04:10:00;2.70;99.90
36586;DHT22;22591;48.314;11.562;2023-04-03T04:12:27;2.60;99.90
36586;DHT22;22591;48.314;11.562;2023-04-03T04:14:53;2.60;99.90
36586;DHT22;22591;48.314;11.562;2023-04-03T04:17:19;2.60;99.90
36586;DHT22;22591;48.314;11.562;2023-04-03T04:19:46;2.60;99.90
36586;DHT22;22591;48.314;11.562;2023-04-03T04:22:11;2.60;99.90
36586;DHT22;22591;48.314;11.562;2023-04-03T04:24:37;2.60;99.90
36586;DHT22;22591;48.314;11.562;2023-04-03T04:27:04;2.60;99.90
36586;DHT22;22591;48.314;11.562;2023-04-03T04:29:31;2.60;99.90
36586;DHT22;22591;48.314;11.562;2023-04-03T04:32:03;2.60;99.90
36586;DHT22;22591;48.314;11.562;2023-04-03T04:34:30;2.60;99.90
36586;DHT22;22591;48.314;11.562;2023-04-03T04:36:57;2.60;99.90
36586;DHT22;22591;48.314;11.562;2023-04-03T04:39:23;2.50;99.90
36586;DHT22;22591;48.314;11.562;2023-04-03T04:41:50;2.50;99.90
36586;DHT22;22591;48.314;11.562;2023-04-03T04:44:15;2.60;99.90
36586;DHT22;22591;48.314;11.562;2023-04-03T04:46:42;2.50;99.90
36586;DHT22;22591;48.314;11.562;2023-04-03T04:49:07;2.50;99.90
36586;DHT22;22591;48.314;11.562;2023-04-03T04:51:35;2.50;99.90
36586;DHT22;22591;48.314;11.562;2023-04-03T04:54:00;2.50;99.90
36586;DHT22;22591;48.314;11.562;2023-04-03T04:56:27;2.50;99.90
36586;DHT22;22591;48.314;11.562;2023-04-03T04:58:53;2.50;99.90
36586;DHT22;22591;48.314;11.562;2023-04-03T05:01:18;2.50;99.90
36586;DHT22;22591;48.314;11.562;2023-04-03T05:03:44;2.40;99.90
36586;DHT22;22591;48.314;11.562;2023-04-03T05:06:09;2.50;99.90
36586;DHT22;22591;48.314;11.562;2023-04-03T05:08:36;2.50;99.90
36586;DHT22;22591;48.314;11.562;2023-04-03T05:11:03;2.50;99.90
36586;DHT22;22591;48.314;11.562;2023-04-03T05:13:30;2.50;99.90
36586;DHT22;22591;48.314;11.562;2023-04-03T05:15:57;2.50;99.90
36586;DHT22;22591;48.314;11.562;2023-04-03T05:18:22;2.60;99.90
36586;DHT22;22591;48.314;11.562;2023-04-03T05:20:50;2.50;99.90
36586;DHT22;22591;48.314;11.562;2023-04-03T05:23:18;2.60;99.90
36586;DHT22;22591;48.314;11.562;2023-04-03T05:25:45;2.60;99.90
36586;DHT22;22591;48.314;11.562;2023-04-03T05:28:12;2.70;99.90
36586;DHT22;22591;48.314;11.562;2023-04-03T05:30:39;2.70;99.90
36586;DHT22;22591;48.314;11.562;2023-04-03T05:33:05;2.70;99.90
36586;DHT22;22591;48.314;11.562;2023-04-03T05:35:31;2.80;99.90
36586;DHT22;22591;48.314;11.562;2023-04-03T05:37:58;2.80;99.90
36586;DHT22;22591;48.314;11.562;2023-04-03T05:40:24;2.80;99.90
36586;DHT22;22591;48.314;11.562;2023-04-03T05:42:51;2.80;99.90
36586;DHT22;22591;48.314;11.562;2023-04-03T05:45:16;2.80;99.90
36586;DHT22;22591;48.314;11.562;2023-04-03T05:47:43;2.90;99.90
36586;DHT22;22591;48.314;11.562;2023-04-03T05:50:09;3.00;99.90
36586;DHT22;22591;48.314;11.562;2023-04-03T05:52:40;3.00;99.90
36586;DHT22;22591;48.314;11.562;2023-04-03T05:55:08;3.00;99.90
36586;DHT22;22591;48.314;11.562;2023-04-03T05:57:35;3.00;99.90
36586;DHT22;22591;48.314;11.562;2023-04-03T06:00:04;3.10;99.90
36586;DHT22;22591;48.314;11.562;2023-04-03T06:02:32;3.10;99.90
36586;DHT22;22591;48.314;11.562;2023-04-03T06:04:59;3.20;99.90
36586;DHT22;22591;48.314;11.562;2023-04-03T06:07:26;3.20;99.90
36586;DHT22;22591;48.314;11.562;2023-04-03T06:09:54;3.20;99.90
36586;DHT22;22591;48.314;11.562;2023-04-03T06:12:21;3.30;99.90
36586;DHT22;22591;48.314;11.562;2023-04-03T06:14:48;3.30;99.90
36586;DHT22;22591;48.314;11.562;2023-04-03T06:17:15;3.50;99.90
36586;DHT22;22591;48.314;11.562;2023-04-03T06:19:42;3.50;99.90
36586;DHT22;22591;48.314;11.562;2023-04-03T06:22:08;3.50;99.90
36586;DHT22;22591;48.314;11.562;2023-04-03T06:24:34;3.50;99.90
36586;DHT22;22591;48.314;11.562;2023-04-03T06:27:01;3.60;99.90
36586;DHT22;22591;48.314;11.562;2023-04-03T06:29:28;3.70;99.90
36586;DHT22;22591;48.314;11.562;2023-04-03T06:31:54;3.70;99.90
36586;DHT22;22591;48.314;11.562;2023-04-03T06:34:20;3.80;99.90
36586;DHT22;22591;48.314;11.562;2023-04-03T06:36:47;3.70;99.90
36586;DHT22;22591;48.314;11.562;2023-04-03T06:39:16;3.80;99.90
36586;DHT22;22591;48.314;11.562;2023-04-03T06:41:43;3.90;99.90
36586;DHT22;22591;48.314;11.562;2023-04-03T06:44:10;4.00;99.90
36586;DHT22;22591;48.314;11.562;2023-04-03T06:46:42;4.00;99.90
36586;DHT22;22591;48.314;11.562;2023-04-03T06:49:07;4.10;99.90
36586;DHT22;22591;48.314;11.562;2023-04-03T06:51:35;4.10;99.90
36586;DHT22;22591;48.314;11.562;2023-04-03T06:54:02;4.20;99.90
36586;DHT22;22591;48.314;11.562;2023-04-03T06:56:30;4.30;99.90
36586;DHT22;22591;48.314;11.562;2023-04-03T06:58:57;4.40;99.90
36586;DHT22;22591;48.314;11.562;2023-04-03T07:01:26;4.60;99.90
36586;DHT22;22591;48.314;11.562;2023-04-03T07:03:53;4.70;99.90
36586;DHT22;22591;48.314;11.562;2023-04-03T07:06:19;4.70;99.90
36586;DHT22;22591;48.314;11.562;2023-04-03T07:08:46;4.70;99.90
36586;DHT22;22591;48.314;11.562;2023-04-03T07:11:15;4.70;99.90
36586;DHT22;22591;48.314;11.562;2023-04-03T07:13:42;4.80;99.90
36586;DHT22;22591;48.314;11.562;2023-04-03T07:16:09;4.90;99.90
36586;DHT22;22591;48.314;11.562;2023-04-03T07:18:36;4.80;99.90
36586;DHT22;22591;48.314;11.562;2023-04-03T07:21:04;4.80;99.90
36586;DHT22;22591;48.314;11.562;2023-04-03T07:23:29;4.80;99.90
36586;DHT22;22591;48.314;11.562;2023-04-03T07:25:55;4.90;99.90
36586;DHT22;22591;48.314;11.562;2023-04-03T07:28:24;5.00;99.90
36586;DHT22;22591;48.314;11.562;2023-04-03T07:31:05;5.10;99.90
36586;DHT22;22591;48.314;11.562;2023-04-03T07:33:35;5.10;99.90
36586;DHT22;22591;48.314;11.562;2023-04-03T07:36:02;5.10;99.90
36586;DHT22;22591;48.314;11.562;2023-04-03T07:38:27;5.30;99.90
36586;DHT22;22591;48.314;11.562;2023-04-03T07:40:54;5.40;99.90
36586;DHT22;22591;48.314;11.562;2023-04-03T07:43:21;5.40;99.90
36586;DHT22;22591;48.314;11.562;2023-04-03T07:45:47;5.30;99.90
36586;DHT22;22591;48.314;11.562;2023-04-03T07:48:23;5.30;99.90
36586;DHT22;22591;48.314;11.562;2023-04-03T07:50:51;5.30;99.90
36586;DHT22;22591;48.314;11.562;2023-04-03T07:53:16;5.40;99.90
36586;DHT22;22591;48.314;11.562;2023-04-03T07:55:47;5.50;99.90
36586;DHT22;22591;48.314;11.562;2023-04-03T07:58:17;5.50;99.90
36586;DHT22;22591;48.314;11.562;2023-04-03T08:00:44;5.50;99.90
36586;DHT22;22591;48.314;11.562;2023-04-03T08:03:11;5.50;99.90
36586;DHT22;22591;48.314;11.562;2023-04-03T08:05:44;5.50;99.90
36586;DHT22;22591;48.314;11.562;2023-04-03T08:08:13;5.50;99.90
36586;DHT22;22591;48.314;11.562;2023-04-03T08:10:40;5.50;99.90
36586;DHT22;22591;48.314;11.562;2023-04-03T08:13:06;5.70;99.90
36586;DHT22;22591;48.314;11.562;2023-04-03T08:15:32;5.80;99.90
36586;DHT22;22591;48.314;11.562;2023-04-03T08:17:59;5.90;99.90
36586;DHT22;22591;48.314;11.562;2023-04-03T08:20:26;6.00;99.90
36586;DHT22;22591;48.314;11.562;2023-04-03T08:22:53;6.00;99.90
36586;DHT22;22591;48.314;11.562;2023-04-03T08:25:19;6.00;99.90
36586;DHT22;22591;48.314;11.562;2023-04-03T08:27:45;6.10;99.90
36586;DHT22;22591;48.314;11.562;2023-04-03T08:30:11;6.30;99.90
36586;DHT22;22591;48.314;11.562;2023-04-03T08:32:39;6.30;99.90
36586;DHT22;22591;48.314;11.562;2023-04-03T08:35:07;6.50;99.90
36586;DHT22;22591;48.314;11.562;2023-04-03T08:37:35;6.60;99.90
36586;DHT22;22591;48.314;11.562;2023-04-03T08:40:05;6.50;99.90
36586;DHT22;22591;48.314;11.562;2023-04-03T08:45:53;6.70;99.90
36586;DHT22;22591;48.314;11.562;2023-04-03T08:48:23;6.80;99.90
36586;DHT22;22591;48.314;11.562;2023-04-03T08:50:54;6.90;99.90
36586;DHT22;22591;48.314;11.562;2023-04-03T08:53:25;7.00;99.90
36586;DHT22;22591;48.314;11.562;2023-04-03T08:55:55;7.10;99.90
36586;DHT22;22591;48.314;11.562;2023-04-03T08:58:23;7.20;99.90
36586;DHT22;22591;48.314;11.562;2023-04-03T09:03:19;7.30;99.90
36586;DHT22;22591;48.314;11.562;2023-04-03T09:06:05;7.00;99.90
36586;DHT22;22591;48.314;11.562;2023-04-03T09:12:32;6.80;99.90
36586;DHT22;22591;48.314;11.562;2023-04-03T09:14:43;6.90;99.90
36586;DHT22;22591;48.314;11.562;2023-04-03T09:20:06;7.10;99.90
36586;DHT22;22591;48.314;11.562;2023-04-03T09:22:39;7.40;99.90
36586;DHT22;22591;48.314;11.562;2023-04-03T09:25:17;7.50;99.90
36586;DHT22;22591;48.314;11.562;2023-04-03T09:27:45;7.60;99.90
36586;DHT22;22591;48.314;11.562;2023-04-03T09:30:29;7.70;99.90
36586;DHT22;22591;48.314;11.562;2023-04-03T09:32:57;7.80;99.90
36586;DHT22;22591;48.314;11.562;2023-04-03T09:37:55;7.70;99.90
36586;DHT22;22591;48.314;11.562;2023-04-03T09:42:54;7.40;99.90
36586;DHT22;22591;48.314;11.562;2023-04-03T09:45:35;7.00;99.90
36586;DHT22;22591;48.314;11.562;2023-04-03T09:50:56;6.60;99.90
36586;DHT22;22591;48.314;11.562;2023-04-03T09:56:18;6.60;99.90
36586;DHT22;22591;48.314;11.562;2023-04-03T10:01:34;6.60;99.90
36586;DHT22;22591;48.314;11.562;2023-04-03T10:04:18;6.70;99.90
36586;DHT22;22591;48.314;11.562;2023-04-03T10:06:55;6.70;99.20
36586;DHT22;22591;48.314;11.562;2023-04-03T10:09:28;6.90;98.80
36586;DHT22;22591;48.314;11.562;2023-04-03T10:11:59;7.00;99.00
36586;DHT22;22591;48.314;11.562;2023-04-03T10:14:33;7.00;98.60
36586;DHT22;22591;48.314;11.562;2023-04-03T10:17:25;7.30;98.10
36586;DHT22;22591;48.314;11.562;2023-04-03T10:20:02;7.70;97.50
36586;DHT22;22591;48.314;11.562;2023-04-03T10:25:35;8.30;95.40
36586;DHT22;22591;48.314;11.562;2023-04-03T10:39:57;8.90;93.30
36586;DHT22;22591;48.314;11.562;2023-04-03T10:45:41;9.30;92.50
36586;DHT22;22591;48.314;11.562;2023-04-03T10:51:27;9.30;92.50
36586;DHT22;22591;48.314;11.562;2023-04-03T10:54:24;8.90;92.20
36586;DHT22;22591;48.314;11.562;2023-04-03T10:57:03;8.60;92.20
36586;DHT22;22591;48.314;11.562;2023-04-03T10:59:55;8.10;92.20
36586;DHT22;22591;48.314;11.562;2023-04-03T11:02:48;7.90;92.10
36586;DHT22;22591;48.314;11.562;2023-04-03T11:05:15;8.00;91.90
36586;DHT22;22591;48.314;11.562;2023-04-03T11:07:48;8.10;91.50
36586;DHT22;22591;48.314;11.562;2023-04-03T11:10:23;8.00;91.10
36586;DHT22;22591;48.314;11.562;2023-04-03T11:13:14;7.80;92.20
36586;DHT22;22591;48.314;11.562;2023-04-03T11:15:42;7.60;92.60
36586;DHT22;22591;48.314;11.562;2023-04-03T11:18:15;7.60;93.10
36586;DHT22;22591;48.314;11.562;2023-04-03T11:21:03;7.60;93.40
36586;DHT22;22591;48.314;11.562;2023-04-03T11:23:36;7.60;93.20
36586;DHT22;22591;48.314;11.562;2023-04-03T11:26:25;7.80;93.30
36586;DHT22;22591;48.314;11.562;2023-04-03T11:29:05;8.00;91.80
36586;DHT22;22591;48.314;11.562;2023-04-03T11:31:57;8.30;91.70
36586;DHT22;22591;48.314;11.562;2023-04-03T11:34:48;8.50;91.40
36586;DHT22;22591;48.314;11.562;2023-04-03T11:40:07;9.00;91.00
36586;DHT22;22591;48.314;11.562;2023-04-03T11:42:53;9.00;89.90
36586;DHT22;22591;48.314;11.562;2023-04-03T11:50:59;9.70;88.30
36586;DHT22;22591;48.314;11.562;2023-04-03T11:53:31;10.00;87.50
36586;DHT22;22591;48.314;11.562;2023-04-03T11:56:26;10.10;85.30
36586;DHT22;22591;48.314;11.562;2023-04-03T12:01:55;9.90;82.60
36586;DHT22;22591;48.314;11.562;2023-04-03T12:04:26;9.80;83.20
36586;DHT22;22591;48.314;11.562;2023-04-03T12:07:16;9.60;84.60
36586;DHT22;22591;48.314;11.562;2023-04-03T12:12:40;9.40;85.20
36586;DHT22;22591;48.314;11.562;2023-04-03T12:17:45;8.60;83.60
36586;DHT22;22591;48.314;11.562;2023-04-03T12:23:35;7.90;83.90
36586;DHT22;22591;48.314;11.562;2023-04-03T12:26:20;7.80;85.70
36586;DHT22;22591;48.314;11.562;2023-04-03T12:28:49;7.70;84.30
36586;DHT22;22591;48.314;11.562;2023-04-03T12:31:16;7.80;83.10
36586;DHT22;22591;48.314;11.562;2023-04-03T12:37:09;8.10;83.70
36586;DHT22;22591;48.314;11.562;2023-04-03T12:48:58;9.70;82.60
36586;DHT22;22591;48.314;11.562;2023-04-03T12:54:22;9.00;85.20
36586;DHT22;22591;48.314;11.562;2023-04-03T12:56:50;8.70;83.80
36586;DHT22;22591;48.314;11.562;2023-04-03T12:59:24;8.60;84.70
36586;DHT22;22591;48.314;11.562;2023-04-03T13:01:58;8.50;83.40
36586;DHT22;22591;48.314;11.562;2023-04-03T13:04:24;8.50;83.40
36586;DHT22;22591;48.314;11.562;2023-04-03T13:06:52;8.70;82.30
36586;DHT22;22591;48.314;11.562;2023-04-03T13:11:50;8.80;81.40
36586;DHT22;22591;48.314;11.562;2023-04-03T13:14:20;8.90;79.90
36586;DHT22;22591;48.314;11.562;2023-04-03T13:19:30;8.60;78.80
36586;DHT22;22591;48.314;11.562;2023-04-03T13:22:05;8.60;79.80
36586;DHT22;22591;48.314;11.562;2023-04-03T13:24:34;8.80;77.80
36586;DHT22;22591;48.314;11.562;2023-04-03T13:27:01;8.90;77.80
36586;DHT22;22591;48.314;11.562;2023-04-03T13:29:32;9.00;77.70
36586;DHT22;22591;48.314;11.562;2023-04-03T13:31:59;9.10;76.70
36586;DHT22;22591;48.314;11.562;2023-04-03T13:34:45;9.10;77.70
36586;DHT22;22591;48.314;11.562;2023-04-03T13:37:32;9.00;77.20
36586;DHT22;22591;48.314;11.562;2023-04-03T13:42:35;8.70;78.00
36586;DHT22;22591;48.314;11.562;2023-04-03T13:45:15;8.60;77.70
36586;DHT22;22591;48.314;11.562;2023-04-03T13:47:43;8.50;78.40
36586;DHT22;22591;48.314;11.562;2023-04-03T13:50:16;8.50;78.50
36586;DHT22;22591;48.314;11.562;2023-04-03T13:52:54;8.90;79.10
36586;DHT22;22591;48.314;11.562;2023-04-03T13:55:27;9.40;78.90
36586;DHT22;22591;48.314;11.562;2023-04-03T14:02:59;8.60;74.20
36586;DHT22;22591;48.314;11.562;2023-04-03T14:05:26;8.30;75.30
36586;DHT22;22591;48.314;11.562;2023-04-03T14:07:59;8.00;74.40
36586;DHT22;22591;48.314;11.562;2023-04-03T14:10:30;7.80;73.40
36586;DHT22;22591;48.314;11.562;2023-04-03T14:12:56;7.80;76.20
36586;DHT22;22591;48.314;11.562;2023-04-03T14:15:24;7.80;75.60
36586;DHT22;22591;48.314;11.562;2023-04-03T14:17:51;8.00;76.80
36586;DHT22;22591;48.314;11.562;2023-04-03T14:20:20;8.30;77.30
36586;DHT22;22591;48.314;11.562;2023-04-03T14:22:49;8.60;75.20
36586;DHT22;22591;48.314;11.562;2023-04-03T14:25:16;8.50;73.40
36586;DHT22;22591;48.314;11.562;2023-04-03T14:27:47;8.40;71.60
36586;DHT22;22591;48.314;11.562;2023-04-03T14:30:18;8.10;69.80
36586;DHT22;22591;48.314;11.562;2023-04-03T14:32:46;7.90;70.70
36586;DHT22;22591;48.314;11.562;2023-04-03T14:35:12;7.80;72.00
36586;DHT22;22591;48.314;11.562;2023-04-03T14:37:38;7.70;72.30
36586;DHT22;22591;48.314;11.562;2023-04-03T14:40:07;7.50;73.10
36586;DHT22;22591;48.314;11.562;2023-04-03T14:42:36;7.30;72.90
36586;DHT22;22591;48.314;11.562;2023-04-03T14:45:05;7.10;72.30
36586;DHT22;22591;48.314;11.562;2023-04-03T14:47:33;7.30;74.20
36586;DHT22;22591;48.314;11.562;2023-04-03T14:50:03;7.30;75.90
36586;DHT22;22591;48.314;11.562;2023-04-03T14:52:33;7.20;72.30
36586;DHT22;22591;48.314;11.562;2023-04-03T14:55:00;6.90;74.00
36586;DHT22;22591;48.314;11.562;2023-04-03T14:57:28;6.60;72.50
36586;DHT22;22591;48.314;11.562;2023-04-03T14:59:55;6.50;73.40
36586;DHT22;22591;48.314;11.562;2023-04-03T15:02:24;6.40;75.30
36586;DHT22;22591;48.314;11.562;2023-04-03T15:04:52;6.30;75.20
36586;DHT22;22591;48.314;11.562;2023-04-03T15:07:18;6.20;75.40
36586;DHT22;22591;48.314;11.562;2023-04-03T15:09:43;6.20;75.40
36586;DHT22;22591;48.314;11.562;2023-04-03T15:12:09;6.20;76.60
36586;DHT22;22591;48.314;11.562;2023-04-03T15:14:35;6.10;74.60
36586;DHT22;22591;48.314;11.562;2023-04-03T15:17:01;5.90;75.70
36586;DHT22;22591;48.314;11.562;2023-04-03T15:19:36;5.90;75.20
36586;DHT22;22591;48.314;11.562;2023-04-03T15:22:02;6.00;75.50
36586;DHT22;22591;48.314;11.562;2023-04-03T15:24:28;6.00;73.70
36586;DHT22;22591;48.314;11.562;2023-04-03T15:26:53;6.00;73.30
36586;DHT22;22591;48.314;11.562;2023-04-03T15:29:20;6.10;73.30
36586;DHT22;22591;48.314;11.562;2023-04-03T15:31:47;6.10;72.90
36586;DHT22;22591;48.314;11.562;2023-04-03T15:34:14;6.20;73.50
36586;DHT22;22591;48.314;11.562;2023-04-03T15:36:42;6.20;74.30
36586;DHT22;22591;48.314;11.562;2023-04-03T15:39:08;6.20;72.40
36586;DHT22;22591;48.314;11.562;2023-04-03T15:41:33;6.10;74.00
36586;DHT22;22591;48.314;11.562;2023-04-03T15:43:59;6.20;73.70
36586;DHT22;22591;48.314;11.562;2023-04-03T15:46:24;6.10;77.50
36586;DHT22;22591;48.314;11.562;2023-04-03T15:48:51;5.90;75.70
36586;DHT22;22591;48.314;11.562;2023-04-03T15:51:17;5.90;76.80
36586;DHT22;22591;48.314;11.562;2023-04-03T15:53:42;5.90;77.10
36586;DHT22;22591;48.314;11.562;2023-04-03T15:56:08;5.80;77.00
36586;DHT22;22591;48.314;11.562;2023-04-03T15:58:35;5.80;78.70
36586;DHT22;22591;48.314;11.562;2023-04-03T16:01:02;5.80;76.10
36586;DHT22;22591;48.314;11.562;2023-04-03T16:03:27;5.70;75.40
36586;DHT22;22591;48.314;11.562;2023-04-03T16:05:54;5.70;75.60
36586;DHT22;22591;48.314;11.562;2023-04-03T16:08:20;5.70;74.80
36586;DHT22;22591;48.314;11.562;2023-04-03T16:10:47;5.60;74.60
36586;DHT22;22591;48.314;11.562;2023-04-03T16:13:13;5.60;75.40
36586;DHT22;22591;48.314;11.562;2023-04-03T16:15:41;5.60;75.60
36586;DHT22;22591;48.314;11.562;2023-04-03T16:18:07;5.60;76.10
36586;DHT22;22591;48.314;11.562;2023-04-03T16:20:35;5.60;77.10
36586;DHT22;22591;48.314;11.562;2023-04-03T16:23:02;5.60;76.70
36586;DHT22;22591;48.314;11.562;2023-04-03T16:25:28;5.60;76.30
36586;DHT22;22591;48.314;11.562;2023-04-03T16:27:53;5.60;76.50
36586;DHT22;22591;48.314;11.562;2023-04-03T16:30:19;5.60;76.10
36586;DHT22;22591;48.314;11.562;2023-04-03T16:32:46;5.50;77.30
36586;DHT22;22591;48.314;11.562;2023-04-03T16:35:12;5.40;77.60
36586;DHT22;22591;48.314;11.562;2023-04-03T16:37:38;5.50;77.00
36586;DHT22;22591;48.314;11.562;2023-04-03T16:40:06;5.50;77.70
36586;DHT22;22591;48.314;11.562;2023-04-03T16:42:32;5.40;77.20
36586;DHT22;22591;48.314;11.562;2023-04-03T16:44:59;5.30;79.60
36586;DHT22;22591;48.314;11.562;2023-04-03T16:47:29;5.20;78.80
36586;DHT22;22591;48.314;11.562;2023-04-03T16:49:56;5.10;79.40
36586;DHT22;22591;48.314;11.562;2023-04-03T16:52:23;5.00;79.10
36586;DHT22;22591;48.314;11.562;2023-04-03T16:54:50;4.80;79.00
36586;DHT22;22591;48.314;11.562;2023-04-03T16:57:22;4.80;80.20
36586;DHT22;22591;48.314;11.562;2023-04-03T17:02:18;4.70;81.60
36586;DHT22;22591;48.314;11.562;2023-04-03T17:04:44;4.70;81.40
36586;DHT22;22591;48.314;11.562;2023-04-03T17:07:10;4.70;82.40
36586;DHT22;22591;48.314;11.562;2023-04-03T17:09:35;4.60;82.60
36586;DHT22;22591;48.314;11.562;2023-04-03T17:12:01;4.60;82.90
36586;DHT22;22591;48.314;11.562;2023-04-03T17:14:27;4.60;84.30
36586;DHT22;22591;48.314;11.562;2023-04-03T17:16:54;4.50;84.10
36586;DHT22;22591;48.314;11.562;2023-04-03T17:19:19;4.50;83.20